sensor_id;sensor_type;location;lat;lon;timestamp;P1;durP1;ratioP1;P2;durP2;ratioP2
69047;SDS011;56119;50.118;8.642;2023-09-12T00:02:32;20.63;;;10.60;;
69047;SDS011;56119;50.118;8.642;2023-09-12T00:04:58;20.10;;;10.38;;
69047;SDS011;56119;50.118;8.642;2023-09-12T00:07:24;15.50;;;9.38;;
69047;SDS011;56119;50.118;8.642;2023-09-12T00:09:50;12.95;;;9.00;;
69047;SDS011;56119;50.118;8.642;2023-09-12T00:12:16;19.38;;;10.80;;
69047;SDS011;56119;50.118;8.642;2023-09-12T00:14:42;16.58;;;9.73;;
69047;SDS011;56119;50.118;8.642;2023-09-12T00:17:08;18.23;;;10.05;;
69047;SDS011;56119;50.118;8.642;2023-09-12T00:19:34;14.65;;;9.65;;
69047;SDS011;56119;50.118;8.642;2023-09-12T00:22:00;16.38;;;10.60;;
69047;SDS011;56119;50.118;8.642;2023-09-12T00:24:26;28.45;;;10.70;;
69047;SDS011;56119;50.118;8.642;2023-09-12T00:26:52;16.38;;;10.27;;
69047;SDS011;56119;50.118;8.642;2023-09-12T00:29:18;16.23;;;9.68;;
69047;SDS011;56119;50.118;8.642;2023-09-12T00:31:44;18.15;;;10.18;;
69047;SDS011;56119;50.118;8.642;2023-09-12T00:34:11;13.77;;;9.90;;
69047;SDS011;56119;50.118;8.642;2023-09-12T00:36:41;21.50;;;9.93;;
69047;SDS011;56119;50.118;8.642;2023-09-12T00:39:07;18.70;;;11.27;;
69047;SDS011;56119;50.118;8.642;2023-09-12T00:41:33;18.10;;;10.95;;
69047;SDS011;56119;50.118;8.642;2023-09-12T00:43:59;15.90;;;10.55;;
69047;SDS011;56119;50.118;8.642;2023-09-12T00:46:25;20.05;;;10.10;;
69047;SDS011;56119;50.118;8.642;2023-09-12T00:48:51;16.65;;;9.07;;
69047;SDS011;56119;50.118;8.642;2023-09-12T00:51:18;23.50;;;10.15;;
69047;SDS011;56119;50.118;8.642;2023-09-12T00:53:46;14.90;;;10.02;;
69047;SDS011;56119;50.118;8.642;2023-09-12T00:56:12;20.08;;;10.50;;
69047;SDS011;56119;50.118;8.642;2023-09-12T00:58:38;15.77;;;10.63;;
69047;SDS011;56119;50.118;8.642;2023-09-12T01:01:04;13.88;;;10.02;;
69047;SDS011;56119;50.118;8.642;2023-09-12T01:03:30;18.42;;;10.25;;
69047;SDS011;56119;50.118;8.642;2023-09-12T01:05:57;18.65;;;10.50;;
69047;SDS011;56119;50.118;8.642;2023-09-12T01:08:23;16.77;;;10.05;;
69047;SDS011;56119;50.118;8.642;2023-09-12T01:10:49;18.33;;;9.85;;
69047;SDS011;56119;50.118;8.642;2023-09-12T01:13:16;18.15;;;10.48;;
69047;SDS011;56119;50.118;8.642;2023-09-12T01:15:42;17.40;;;10.07;;
69047;SDS011;56119;50.118;8.642;2023-09-12T01:18:08;15.82;;;10.45;;
69047;SDS011;56119;50.118;8.642;2023-09-12T01:20:35;14.80;;;10.15;;
69047;SDS011;56119;50.118;8.642;2023-09-12T01:28:20;15.65;;;10.95;;
69047;SDS011;56119;50.118;8.642;2023-09-12T01:30:50;15.20;;;10.98;;
69047;SDS011;56119;50.118;8.642;2023-09-12T01:33:17;20.08;;;10.68;;
69047;SDS011;56119;50.118;8.642;2023-09-12T01:35:43;18.63;;;10.25;;
69047;SDS011;56119;50.118;8.642;2023-09-12T01:38:09;16.48;;;10.30;;
69047;SDS011;56119;50.118;8.642;2023-09-12T01:40:46;16.17;;;10.40;;
69047;SDS011;56119;50.118;8.642;2023-09-12T01:43:13;20.33;;;11.70;;
69047;SDS011;56119;50.118;8.642;2023-09-12T01:45:41;19.05;;;10.90;;
69047;SDS011;56119;50.118;8.642;2023-09-12T01:48:07;14.18;;;11.57;;
69047;SDS011;56119;50.118;8.642;2023-09-12T01:50:34;15.68;;;11.73;;
69047;SDS011;56119;50.118;8.642;2023-09-12T01:53:01;22.48;;;11.02;;
69047;SDS011;56119;50.118;8.642;2023-09-12T01:55:27;22.27;;;12.45;;
69047;SDS011;56119;50.118;8.642;2023-09-12T01:57:53;17.60;;;10.30;;
69047;SDS011;56119;50.118;8.642;2023-09-12T02:00:20;15.07;;;10.57;;
69047;SDS011;56119;50.118;8.642;2023-09-12T02:02:47;18.63;;;10.60;;
69047;SDS011;56119;50.118;8.642;2023-09-12T02:05:16;17.17;;;11.25;;
69047;SDS011;56119;50.118;8.642;2023-09-12T02:07:44;17.30;;;11.63;;
69047;SDS011;56119;50.118;8.642;2023-09-12T02:10:10;20.90;;;11.90;;
69047;SDS011;56119;50.118;8.642;2023-09-12T02:12:36;19.05;;;11.65;;
69047;SDS011;56119;50.118;8.642;2023-09-12T02:15:02;17.10;;;12.10;;
69047;SDS011;56119;50.118;8.642;2023-09-12T02:17:28;15.68;;;10.68;;
69047;SDS011;56119;50.118;8.642;2023-09-12T02:19:54;21.55;;;11.50;;
69047;SDS011;56119;50.118;8.642;2023-09-12T02:22:20;17.83;;;11.50;;
69047;SDS011;56119;50.118;8.642;2023-09-12T02:24:46;19.75;;;11.40;;
69047;SDS011;56119;50.118;8.642;2023-09-12T02:27:12;19.58;;;12.30;;
69047;SDS011;56119;50.118;8.642;2023-09-12T02:29:38;20.98;;;12.30;;
69047;SDS011;56119;50.118;8.642;2023-09-12T02:32:05;22.13;;;12.80;;
69047;SDS011;56119;50.118;8.642;2023-09-12T02:34:32;23.98;;;13.93;;
69047;SDS011;56119;50.118;8.642;2023-09-12T02:36:58;18.77;;;13.77;;
69047;SDS011;56119;50.118;8.642;2023-09-12T02:39:24;26.45;;;13.27;;
69047;SDS011;56119;50.118;8.642;2023-09-12T02:41:50;18.10;;;12.73;;
69047;SDS011;56119;50.118;8.642;2023-09-12T02:44:16;20.58;;;12.52;;
69047;SDS011;56119;50.118;8.642;2023-09-12T02:46:42;18.63;;;11.43;;
69047;SDS011;56119;50.118;8.642;2023-09-12T02:49:08;28.27;;;13.32;;
69047;SDS011;56119;50.118;8.642;2023-09-12T02:51:33;22.45;;;14.23;;
69047;SDS011;56119;50.118;8.642;2023-09-12T02:53:59;21.77;;;12.50;;
69047;SDS011;56119;50.118;8.642;2023-09-12T02:56:25;22.50;;;11.93;;
69047;SDS011;56119;50.118;8.642;2023-09-12T02:58:51;15.75;;;11.23;;
69047;SDS011;56119;50.118;8.642;2023-09-12T03:01:18;14.52;;;11.18;;
69047;SDS011;56119;50.118;8.642;2023-09-12T03:03:47;18.85;;;10.70;;
69047;SDS011;56119;50.118;8.642;2023-09-12T03:06:13;17.98;;;11.02;;
69047;SDS011;56119;50.118;8.642;2023-09-12T03:08:39;17.48;;;11.05;;
69047;SDS011;56119;50.118;8.642;2023-09-12T03:11:05;16.08;;;10.35;;
69047;SDS011;56119;50.118;8.642;2023-09-12T03:13:32;16.27;;;10.38;;
69047;SDS011;56119;50.118;8.642;2023-09-12T03:15:59;16.48;;;10.25;;
69047;SDS011;56119;50.118;8.642;2023-09-12T03:18:25;20.20;;;11.40;;
69047;SDS011;56119;50.118;8.642;2023-09-12T03:20:51;18.25;;;10.98;;
69047;SDS011;56119;50.118;8.642;2023-09-12T03:23:19;19.88;;;11.00;;
69047;SDS011;56119;50.118;8.642;2023-09-12T03:25:45;15.15;;;10.68;;
69047;SDS011;56119;50.118;8.642;2023-09-12T03:28:11;23.95;;;11.82;;
69047;SDS011;56119;50.118;8.642;2023-09-12T03:30:37;20.15;;;11.00;;
69047;SDS011;56119;50.118;8.642;2023-09-12T03:33:03;14.77;;;10.65;;
69047;SDS011;56119;50.118;8.642;2023-09-12T03:35:31;18.75;;;11.02;;
69047;SDS011;56119;50.118;8.642;2023-09-12T03:37:57;13.95;;;10.20;;
69047;SDS011;56119;50.118;8.642;2023-09-12T03:40:23;16.45;;;9.90;;
69047;SDS011;56119;50.118;8.642;2023-09-12T03:42:49;19.70;;;11.20;;
69047;SDS011;56119;50.118;8.642;2023-09-12T03:45:15;13.93;;;9.07;;
69047;SDS011;56119;50.118;8.642;2023-09-12T03:47:41;15.77;;;10.80;;
69047;SDS011;56119;50.118;8.642;2023-09-12T03:50:08;16.98;;;10.45;;
69047;SDS011;56119;50.118;8.642;2023-09-12T03:52:34;16.48;;;10.15;;
69047;SDS011;56119;50.118;8.642;2023-09-12T03:55:00;17.42;;;10.18;;
69047;SDS011;56119;50.118;8.642;2023-09-12T03:57:26;15.10;;;10.35;;
69047;SDS011;56119;50.118;8.642;2023-09-12T03:59:52;20.63;;;11.02;;
69047;SDS011;56119;50.118;8.642;2023-09-12T04:02:18;18.52;;;11.02;;
69047;SDS011;56119;50.118;8.642;2023-09-12T04:04:44;14.10;;;10.27;;
69047;SDS011;56119;50.118;8.642;2023-09-12T04:07:10;12.48;;;10.13;;
69047;SDS011;56119;50.118;8.642;2023-09-12T04:09:36;19.17;;;11.77;;
69047;SDS011;56119;50.118;8.642;2023-09-12T04:12:02;18.42;;;11.15;;
69047;SDS011;56119;50.118;8.642;2023-09-12T04:14:28;17.63;;;11.07;;
69047;SDS011;56119;50.118;8.642;2023-09-12T04:16:54;16.75;;;10.77;;
69047;SDS011;56119;50.118;8.642;2023-09-12T04:19:20;16.73;;;10.88;;
69047;SDS011;56119;50.118;8.642;2023-09-12T04:21:46;18.98;;;11.75;;
69047;SDS011;56119;50.118;8.642;2023-09-12T04:24:12;16.85;;;10.70;;
69047;SDS011;56119;50.118;8.642;2023-09-12T04:26:38;17.73;;;11.00;;
69047;SDS011;56119;50.118;8.642;2023-09-12T04:29:04;18.73;;;11.88;;
69047;SDS011;56119;50.118;8.642;2023-09-12T04:31:30;17.05;;;10.95;;
69047;SDS011;56119;50.118;8.642;2023-09-12T04:33:56;17.95;;;11.68;;
69047;SDS011;56119;50.118;8.642;2023-09-12T04:36:22;17.17;;;11.90;;
69047;SDS011;56119;50.118;8.642;2023-09-12T04:38:48;15.85;;;11.13;;
69047;SDS011;56119;50.118;8.642;2023-09-12T04:41:14;21.40;;;13.95;;
69047;SDS011;56119;50.118;8.642;2023-09-12T04:43:42;19.73;;;10.75;;
69047;SDS011;56119;50.118;8.642;2023-09-12T04:46:09;17.92;;;11.93;;
69047;SDS011;56119;50.118;8.642;2023-09-12T04:48:35;17.60;;;11.27;;
69047;SDS011;56119;50.118;8.642;2023-09-12T04:51:01;19.08;;;12.55;;
69047;SDS011;56119;50.118;8.642;2023-09-12T04:53:27;17.30;;;12.15;;
69047;SDS011;56119;50.118;8.642;2023-09-12T04:55:59;17.00;;;11.52;;
69047;SDS011;56119;50.118;8.642;2023-09-12T04:58:25;17.88;;;12.63;;
69047;SDS011;56119;50.118;8.642;2023-09-12T05:00:51;19.38;;;11.98;;
69047;SDS011;56119;50.118;8.642;2023-09-12T05:03:20;15.52;;;11.93;;
69047;SDS011;56119;50.118;8.642;2023-09-12T05:05:49;19.08;;;12.05;;
69047;SDS011;56119;50.118;8.642;2023-09-12T05:08:16;19.55;;;12.40;;
69047;SDS011;56119;50.118;8.642;2023-09-12T05:10:46;18.00;;;13.95;;
69047;SDS011;56119;50.118;8.642;2023-09-12T05:13:12;18.80;;;11.63;;
69047;SDS011;56119;50.118;8.642;2023-09-12T05:15:38;19.52;;;11.05;;
69047;SDS011;56119;50.118;8.642;2023-09-12T05:18:04;18.27;;;10.57;;
69047;SDS011;56119;50.118;8.642;2023-09-12T05:20:31;17.27;;;11.30;;
69047;SDS011;56119;50.118;8.642;2023-09-12T05:22:57;18.25;;;11.50;;
69047;SDS011;56119;50.118;8.642;2023-09-12T05:25:23;20.00;;;13.45;;
69047;SDS011;56119;50.118;8.642;2023-09-12T05:27:49;18.52;;;11.52;;
69047;SDS011;56119;50.118;8.642;2023-09-12T05:30:15;19.85;;;11.77;;
69047;SDS011;56119;50.118;8.642;2023-09-12T05:32:41;15.13;;;10.52;;
69047;SDS011;56119;50.118;8.642;2023-09-12T05:35:07;14.20;;;10.88;;
69047;SDS011;56119;50.118;8.642;2023-09-12T05:37:33;25.58;;;11.25;;
69047;SDS011;56119;50.118;8.642;2023-09-12T05:39:59;18.50;;;10.32;;
69047;SDS011;56119;50.118;8.642;2023-09-12T05:42:25;21.45;;;10.57;;
69047;SDS011;56119;50.118;8.642;2023-09-12T05:44:51;21.20;;;10.20;;
69047;SDS011;56119;50.118;8.642;2023-09-12T05:47:18;18.15;;;12.50;;
69047;SDS011;56119;50.118;8.642;2023-09-12T05:49:44;16.70;;;10.13;;
69047;SDS011;56119;50.118;8.642;2023-09-12T05:52:11;20.15;;;11.27;;
69047;SDS011;56119;50.118;8.642;2023-09-12T05:54:37;19.63;;;10.77;;
69047;SDS011;56119;50.118;8.642;2023-09-12T05:57:03;18.75;;;10.25;;
69047;SDS011;56119;50.118;8.642;2023-09-12T05:59:29;17.02;;;10.27;;
69047;SDS011;56119;50.118;8.642;2023-09-12T06:01:55;19.38;;;10.90;;
69047;SDS011;56119;50.118;8.642;2023-09-12T06:04:21;18.80;;;9.90;;
69047;SDS011;56119;50.118;8.642;2023-09-12T06:06:47;21.90;;;10.02;;
69047;SDS011;56119;50.118;8.642;2023-09-12T06:09:14;19.23;;;10.38;;
69047;SDS011;56119;50.118;8.642;2023-09-12T06:11:40;17.42;;;9.80;;
69047;SDS011;56119;50.118;8.642;2023-09-12T06:14:06;16.00;;;8.98;;
69047;SDS011;56119;50.118;8.642;2023-09-12T06:16:32;14.77;;;10.25;;
69047;SDS011;56119;50.118;8.642;2023-09-12T06:18:58;16.63;;;9.77;;
69047;SDS011;56119;50.118;8.642;2023-09-12T06:21:24;22.58;;;12.90;;
69047;SDS011;56119;50.118;8.642;2023-09-12T06:23:57;20.85;;;10.95;;
69047;SDS011;56119;50.118;8.642;2023-09-12T06:26:33;27.00;;;13.27;;
69047;SDS011;56119;50.118;8.642;2023-09-12T06:28:59;20.13;;;10.98;;
69047;SDS011;56119;50.118;8.642;2023-09-12T06:31:25;21.60;;;11.63;;
69047;SDS011;56119;50.118;8.642;2023-09-12T06:33:51;17.20;;;10.43;;
69047;SDS011;56119;50.118;8.642;2023-09-12T06:36:17;24.98;;;12.02;;
69047;SDS011;56119;50.118;8.642;2023-09-12T06:38:42;19.77;;;11.75;;
69047;SDS011;56119;50.118;8.642;2023-09-12T06:41:08;19.35;;;11.45;;
69047;SDS011;56119;50.118;8.642;2023-09-12T06:43:34;20.48;;;11.20;;
69047;SDS011;56119;50.118;8.642;2023-09-12T06:46:00;20.38;;;11.65;;
69047;SDS011;56119;50.118;8.642;2023-09-12T06:48:26;19.73;;;10.43;;
69047;SDS011;56119;50.118;8.642;2023-09-12T06:50:53;16.95;;;10.40;;
69047;SDS011;56119;50.118;8.642;2023-09-12T06:53:19;19.02;;;12.13;;
69047;SDS011;56119;50.118;8.642;2023-09-12T06:55:46;16.60;;;11.77;;
69047;SDS011;56119;50.118;8.642;2023-09-12T06:58:11;15.63;;;11.32;;
69047;SDS011;56119;50.118;8.642;2023-09-12T07:00:37;14.70;;;10.60;;
69047;SDS011;56119;50.118;8.642;2023-09-12T07:03:03;17.45;;;11.50;;
69047;SDS011;56119;50.118;8.642;2023-09-12T07:05:29;19.08;;;11.50;;
69047;SDS011;56119;50.118;8.642;2023-09-12T07:07:55;18.17;;;11.07;;
69047;SDS011;56119;50.118;8.642;2023-09-12T07:10:22;17.25;;;11.90;;
69047;SDS011;56119;50.118;8.642;2023-09-12T07:12:48;18.58;;;10.65;;
69047;SDS011;56119;50.118;8.642;2023-09-12T07:15:14;15.40;;;10.13;;
69047;SDS011;56119;50.118;8.642;2023-09-12T07:17:40;17.30;;;10.48;;
69047;SDS011;56119;50.118;8.642;2023-09-12T07:20:06;16.70;;;10.70;;
69047;SDS011;56119;50.118;8.642;2023-09-12T07:22:37;18.38;;;12.60;;
69047;SDS011;56119;50.118;8.642;2023-09-12T07:25:04;15.02;;;9.93;;
69047;SDS011;56119;50.118;8.642;2023-09-12T07:27:30;16.05;;;11.50;;
69047;SDS011;56119;50.118;8.642;2023-09-12T07:29:56;17.17;;;10.75;;
69047;SDS011;56119;50.118;8.642;2023-09-12T07:32:22;21.30;;;9.70;;
69047;SDS011;56119;50.118;8.642;2023-09-12T07:34:49;17.13;;;9.07;;
69047;SDS011;56119;50.118;8.642;2023-09-12T07:37:15;13.00;;;9.40;;
69047;SDS011;56119;50.118;8.642;2023-09-12T07:39:41;16.98;;;9.57;;
69047;SDS011;56119;50.118;8.642;2023-09-12T07:42:07;25.55;;;10.02;;
69047;SDS011;56119;50.118;8.642;2023-09-12T07:44:33;16.70;;;8.77;;
69047;SDS011;56119;50.118;8.642;2023-09-12T07:46:59;14.48;;;9.32;;
69047;SDS011;56119;50.118;8.642;2023-09-12T07:49:25;17.05;;;9.70;;
69047;SDS011;56119;50.118;8.642;2023-09-12T07:51:51;14.40;;;8.38;;
69047;SDS011;56119;50.118;8.642;2023-09-12T07:54:17;22.83;;;10.15;;
69047;SDS011;56119;50.118;8.642;2023-09-12T07:56:43;15.50;;;8.63;;
69047;SDS011;56119;50.118;8.642;2023-09-12T07:59:09;13.95;;;8.70;;
69047;SDS011;56119;50.118;8.642;2023-09-12T08:01:37;16.67;;;9.40;;
69047;SDS011;56119;50.118;8.642;2023-09-12T08:04:03;17.35;;;8.82;;
69047;SDS011;56119;50.118;8.642;2023-09-12T08:06:29;14.93;;;8.82;;
69047;SDS011;56119;50.118;8.642;2023-09-12T08:08:56;15.07;;;8.82;;
69047;SDS011;56119;50.118;8.642;2023-09-12T08:11:22;20.75;;;8.75;;
69047;SDS011;56119;50.118;8.642;2023-09-12T08:13:48;14.65;;;8.52;;
69047;SDS011;56119;50.118;8.642;2023-09-12T08:16:15;12.82;;;7.63;;
69047;SDS011;56119;50.118;8.642;2023-09-12T08:18:41;14.25;;;7.63;;
69047;SDS011;56119;50.118;8.642;2023-09-12T08:21:07;13.85;;;7.65;;
69047;SDS011;56119;50.118;8.642;2023-09-12T08:23:33;13.07;;;8.32;;
69047;SDS011;56119;50.118;8.642;2023-09-12T08:25:59;13.10;;;7.78;;
69047;SDS011;56119;50.118;8.642;2023-09-12T08:28:25;12.98;;;8.27;;
69047;SDS011;56119;50.118;8.642;2023-09-12T08:30:51;12.68;;;8.07;;
69047;SDS011;56119;50.118;8.642;2023-09-12T08:33:17;13.20;;;8.50;;
69047;SDS011;56119;50.118;8.642;2023-09-12T08:35:43;13.73;;;8.70;;
69047;SDS011;56119;50.118;8.642;2023-09-12T08:38:09;12.23;;;8.23;;
69047;SDS011;56119;50.118;8.642;2023-09-12T08:40:36;12.45;;;8.38;;
69047;SDS011;56119;50.118;8.642;2023-09-12T08:43:02;16.20;;;8.40;;
69047;SDS011;56119;50.118;8.642;2023-09-12T08:45:29;14.70;;;8.45;;
69047;SDS011;56119;50.118;8.642;2023-09-12T08:47:56;12.40;;;7.90;;
69047;SDS011;56119;50.118;8.642;2023-09-12T08:50:22;12.75;;;8.48;;
69047;SDS011;56119;50.118;8.642;2023-09-12T08:52:49;14.75;;;8.07;;
69047;SDS011;56119;50.118;8.642;2023-09-12T08:55:15;14.00;;;8.05;;
69047;SDS011;56119;50.118;8.642;2023-09-12T08:57:42;13.13;;;8.15;;
69047;SDS011;56119;50.118;8.642;2023-09-12T09:00:08;17.60;;;8.38;;
69047;SDS011;56119;50.118;8.642;2023-09-12T09:02:38;12.75;;;8.30;;
69047;SDS011;56119;50.118;8.642;2023-09-12T09:05:05;13.65;;;7.75;;
69047;SDS011;56119;50.118;8.642;2023-09-12T09:07:32;13.93;;;8.50;;
69047;SDS011;56119;50.118;8.642;2023-09-12T09:10:01;13.23;;;7.88;;
69047;SDS011;56119;50.118;8.642;2023-09-12T09:12:28;12.10;;;7.57;;
69047;SDS011;56119;50.118;8.642;2023-09-12T09:14:54;10.95;;;7.40;;
69047;SDS011;56119;50.118;8.642;2023-09-12T09:17:20;14.27;;;8.57;;
69047;SDS011;56119;50.118;8.642;2023-09-12T09:19:46;16.80;;;8.00;;
69047;SDS011;56119;50.118;8.642;2023-09-12T09:22:13;14.45;;;8.10;;
69047;SDS011;56119;50.118;8.642;2023-09-12T09:24:39;12.20;;;7.57;;
69047;SDS011;56119;50.118;8.642;2023-09-12T09:27:05;12.30;;;7.32;;
69047;SDS011;56119;50.118;8.642;2023-09-12T09:29:31;15.02;;;8.48;;
69047;SDS011;56119;50.118;8.642;2023-09-12T09:32:01;16.05;;;7.93;;
69047;SDS011;56119;50.118;8.642;2023-09-12T09:34:29;14.02;;;7.85;;
69047;SDS011;56119;50.118;8.642;2023-09-12T09:36:57;14.10;;;8.43;;
69047;SDS011;56119;50.118;8.642;2023-09-12T09:39:24;19.90;;;8.90;;
69047;SDS011;56119;50.118;8.642;2023-09-12T09:41:51;14.88;;;7.50;;
69047;SDS011;56119;50.118;8.642;2023-09-12T09:44:17;16.67;;;8.13;;
69047;SDS011;56119;50.118;8.642;2023-09-12T09:46:44;18.13;;;8.32;;
69047;SDS011;56119;50.118;8.642;2023-09-12T09:49:11;18.02;;;8.30;;
69047;SDS011;56119;50.118;8.642;2023-09-12T09:51:40;14.73;;;8.07;;
69047;SDS011;56119;50.118;8.642;2023-09-12T09:54:07;15.18;;;8.43;;
69047;SDS011;56119;50.118;8.642;2023-09-12T09:56:44;16.80;;;8.73;;
69047;SDS011;56119;50.118;8.642;2023-09-12T09:59:11;21.08;;;9.77;;
69047;SDS011;56119;50.118;8.642;2023-09-12T10:01:39;14.23;;;8.02;;
69047;SDS011;56119;50.118;8.642;2023-09-12T10:04:06;20.25;;;8.98;;
69047;SDS011;56119;50.118;8.642;2023-09-12T10:06:32;17.40;;;8.40;;
69047;SDS011;56119;50.118;8.642;2023-09-12T10:09:01;15.15;;;8.48;;
69047;SDS011;56119;50.118;8.642;2023-09-12T10:11:31;16.80;;;7.82;;
69047;SDS011;56119;50.118;8.642;2023-09-12T10:14:02;14.30;;;7.63;;
69047;SDS011;56119;50.118;8.642;2023-09-12T10:16:49;15.63;;;8.48;;
69047;SDS011;56119;50.118;8.642;2023-09-12T10:19:18;16.42;;;7.18;;
69047;SDS011;56119;50.118;8.642;2023-09-12T10:24:10;14.13;;;7.75;;
69047;SDS011;56119;50.118;8.642;2023-09-12T10:26:36;15.38;;;7.53;;
69047;SDS011;56119;50.118;8.642;2023-09-12T10:29:07;20.27;;;8.50;;
69047;SDS011;56119;50.118;8.642;2023-09-12T10:31:34;20.63;;;7.85;;
69047;SDS011;56119;50.118;8.642;2023-09-12T10:34:00;15.25;;;7.25;;
69047;SDS011;56119;50.118;8.642;2023-09-12T10:36:27;16.55;;;8.18;;
69047;SDS011;56119;50.118;8.642;2023-09-12T10:38:53;14.27;;;7.93;;
69047;SDS011;56119;50.118;8.642;2023-09-12T10:41:20;16.95;;;7.40;;
69047;SDS011;56119;50.118;8.642;2023-09-12T10:43:46;14.18;;;7.22;;
69047;SDS011;56119;50.118;8.642;2023-09-12T10:46:17;13.13;;;7.57;;
69047;SDS011;56119;50.118;8.642;2023-09-12T10:48:43;16.20;;;8.25;;
69047;SDS011;56119;50.118;8.642;2023-09-12T10:51:09;13.75;;;7.63;;
69047;SDS011;56119;50.118;8.642;2023-09-12T10:53:36;14.88;;;7.47;;
69047;SDS011;56119;50.118;8.642;2023-09-12T10:58:59;13.18;;;7.97;;
69047;SDS011;56119;50.118;8.642;2023-09-12T11:01:28;13.43;;;7.45;;
69047;SDS011;56119;50.118;8.642;2023-09-12T11:03:54;14.52;;;7.13;;
69047;SDS011;56119;50.118;8.642;2023-09-12T11:06:30;17.70;;;7.90;;
69047;SDS011;56119;50.118;8.642;2023-09-12T11:09:29;12.82;;;7.55;;
69047;SDS011;56119;50.118;8.642;2023-09-12T11:12:09;15.10;;;7.85;;
69047;SDS011;56119;50.118;8.642;2023-09-12T11:14:35;18.10;;;9.18;;
69047;SDS011;56119;50.118;8.642;2023-09-12T11:19:45;14.60;;;7.50;;
69047;SDS011;56119;50.118;8.642;2023-09-12T11:22:24;14.00;;;8.02;;
69047;SDS011;56119;50.118;8.642;2023-09-12T11:24:50;12.65;;;8.32;;
69047;SDS011;56119;50.118;8.642;2023-09-12T11:27:16;12.63;;;8.15;;
69047;SDS011;56119;50.118;8.642;2023-09-12T11:29:42;15.65;;;6.72;;
69047;SDS011;56119;50.118;8.642;2023-09-12T11:32:08;15.40;;;8.55;;
69047;SDS011;56119;50.118;8.642;2023-09-12T11:34:40;15.90;;;7.78;;
69047;SDS011;56119;50.118;8.642;2023-09-12T11:37:06;18.83;;;8.55;;
69047;SDS011;56119;50.118;8.642;2023-09-12T11:39:33;14.55;;;7.45;;
69047;SDS011;56119;50.118;8.642;2023-09-12T11:41:59;15.55;;;9.35;;
69047;SDS011;56119;50.118;8.642;2023-09-12T11:44:26;13.85;;;7.97;;
69047;SDS011;56119;50.118;8.642;2023-09-12T11:46:53;14.80;;;7.53;;
69047;SDS011;56119;50.118;8.642;2023-09-12T11:49:19;14.25;;;7.90;;
69047;SDS011;56119;50.118;8.642;2023-09-12T11:51:46;11.55;;;7.43;;
69047;SDS011;56119;50.118;8.642;2023-09-12T11:54:17;14.77;;;8.50;;
69047;SDS011;56119;50.118;8.642;2023-09-12T11:56:43;15.43;;;8.33;;
69047;SDS011;56119;50.118;8.642;2023-09-12T11:59:10;18.45;;;10.55;;
69047;SDS011;56119;50.118;8.642;2023-09-12T12:01:36;16.77;;;9.32;;
69047;SDS011;56119;50.118;8.642;2023-09-12T12:04:02;16.48;;;8.23;;
69047;SDS011;56119;50.118;8.642;2023-09-12T12:06:29;17.98;;;8.85;;
69047;SDS011;56119;50.118;8.642;2023-09-12T12:08:55;14.07;;;8.82;;
69047;SDS011;56119;50.118;8.642;2023-09-12T12:11:21;13.82;;;7.68;;
69047;SDS011;56119;50.118;8.642;2023-09-12T12:13:47;9.23;;;7.05;;
69047;SDS011;56119;50.118;8.642;2023-09-12T12:16:15;13.80;;;7.90;;
69047;SDS011;56119;50.118;8.642;2023-09-12T12:18:42;12.95;;;8.13;;
69047;SDS011;56119;50.118;8.642;2023-09-12T12:21:08;13.32;;;7.25;;
69047;SDS011;56119;50.118;8.642;2023-09-12T12:23:34;11.38;;;7.20;;
69047;SDS011;56119;50.118;8.642;2023-09-12T12:26:05;13.65;;;8.40;;
69047;SDS011;56119;50.118;8.642;2023-09-12T12:28:31;18.35;;;7.70;;
69047;SDS011;56119;50.118;8.642;2023-09-12T12:30:57;10.15;;;7.53;;
69047;SDS011;56119;50.118;8.642;2023-09-12T12:33:25;15.52;;;8.35;;
69047;SDS011;56119;50.118;8.642;2023-09-12T12:36:04;12.10;;;7.68;;
69047;SDS011;56119;50.118;8.642;2023-09-12T12:38:37;13.23;;;8.30;;
69047;SDS011;56119;50.118;8.642;2023-09-12T12:41:03;10.60;;;8.10;;
69047;SDS011;56119;50.118;8.642;2023-09-12T12:43:30;12.15;;;7.70;;
69047;SDS011;56119;50.118;8.642;2023-09-12T12:45:56;15.77;;;8.27;;
69047;SDS011;56119;50.118;8.642;2023-09-12T12:48:32;12.82;;;8.07;;
69047;SDS011;56119;50.118;8.642;2023-09-12T12:50:59;16.30;;;8.85;;
69047;SDS011;56119;50.118;8.642;2023-09-12T12:53:41;12.75;;;6.82;;
69047;SDS011;56119;50.118;8.642;2023-09-12T12:56:07;13.32;;;6.95;;
69047;SDS011;56119;50.118;8.642;2023-09-12T12:58:33;11.52;;;7.03;;
69047;SDS011;56119;50.118;8.642;2023-09-12T13:01:00;11.68;;;7.45;;
69047;SDS011;56119;50.118;8.642;2023-09-12T13:03:26;12.75;;;7.80;;
69047;SDS011;56119;50.118;8.642;2023-09-12T13:05:52;21.90;;;8.90;;
69047;SDS011;56119;50.118;8.642;2023-09-12T13:08:18;11.80;;;9.18;;
69047;SDS011;56119;50.118;8.642;2023-09-12T13:10:44;14.32;;;8.23;;
69047;SDS011;56119;50.118;8.642;2023-09-12T13:13:10;14.88;;;7.93;;
69047;SDS011;56119;50.118;8.642;2023-09-12T13:15:36;10.77;;;8.00;;
69047;SDS011;56119;50.118;8.642;2023-09-12T13:18:02;17.67;;;8.45;;
69047;SDS011;56119;50.118;8.642;2023-09-12T13:20:29;11.38;;;7.55;;
69047;SDS011;56119;50.118;8.642;2023-09-12T13:22:55;12.05;;;8.07;;
69047;SDS011;56119;50.118;8.642;2023-09-12T13:25:21;11.85;;;7.57;;
69047;SDS011;56119;50.118;8.642;2023-09-12T13:27:48;12.77;;;8.23;;
69047;SDS011;56119;50.118;8.642;2023-09-12T13:30:14;11.88;;;8.25;;
69047;SDS011;56119;50.118;8.642;2023-09-12T13:32:40;14.68;;;8.55;;
69047;SDS011;56119;50.118;8.642;2023-09-12T13:35:06;10.77;;;7.43;;
69047;SDS011;56119;50.118;8.642;2023-09-12T13:37:33;9.55;;;7.68;;
69047;SDS011;56119;50.118;8.642;2023-09-12T13:39:59;12.13;;;8.35;;
69047;SDS011;56119;50.118;8.642;2023-09-12T13:42:25;19.27;;;8.40;;
69047;SDS011;56119;50.118;8.642;2023-09-12T13:44:55;15.40;;;7.95;;
69047;SDS011;56119;50.118;8.642;2023-09-12T13:47:21;17.27;;;8.10;;
69047;SDS011;56119;50.118;8.642;2023-09-12T13:49:48;14.63;;;8.13;;
69047;SDS011;56119;50.118;8.642;2023-09-12T13:52:16;15.05;;;9.00;;
69047;SDS011;56119;50.118;8.642;2023-09-12T13:54:42;12.48;;;9.20;;
69047;SDS011;56119;50.118;8.642;2023-09-12T13:57:08;11.73;;;8.20;;
69047;SDS011;56119;50.118;8.642;2023-09-12T13:59:34;12.57;;;7.38;;
69047;SDS011;56119;50.118;8.642;2023-09-12T14:02:00;15.20;;;8.43;;
69047;SDS011;56119;50.118;8.642;2023-09-12T14:04:27;15.48;;;8.45;;
69047;SDS011;56119;50.118;8.642;2023-09-12T14:06:53;12.57;;;8.63;;
69047;SDS011;56119;50.118;8.642;2023-09-12T14:09:19;15.68;;;8.25;;
69047;SDS011;56119;50.118;8.642;2023-09-12T14:11:45;16.55;;;8.88;;
69047;SDS011;56119;50.118;8.642;2023-09-12T14:14:14;17.35;;;9.25;;
69047;SDS011;56119;50.118;8.642;2023-09-12T14:16:42;13.52;;;9.07;;
69047;SDS011;56119;50.118;8.642;2023-09-12T14:19:08;12.55;;;7.68;;
69047;SDS011;56119;50.118;8.642;2023-09-12T14:21:35;13.30;;;8.25;;
69047;SDS011;56119;50.118;8.642;2023-09-12T14:24:01;15.20;;;9.20;;
69047;SDS011;56119;50.118;8.642;2023-09-12T14:26:27;16.30;;;8.70;;
69047;SDS011;56119;50.118;8.642;2023-09-12T14:28:53;15.10;;;8.75;;
69047;SDS011;56119;50.118;8.642;2023-09-12T14:31:20;13.80;;;8.30;;
69047;SDS011;56119;50.118;8.642;2023-09-12T14:33:48;10.20;;;8.15;;
69047;SDS011;56119;50.118;8.642;2023-09-12T14:36:14;13.73;;;8.85;;
69047;SDS011;56119;50.118;8.642;2023-09-12T14:38:40;12.88;;;7.55;;
69047;SDS011;56119;50.118;8.642;2023-09-12T14:41:05;19.08;;;9.35;;